Time;durP1;ratioP1;P1;durP2;ratioP2;P2;SDS_P1;SDS_P2;PMS_P1;PMS_P2;Temp;Humidity;BMP_temperature;BMP_pressure;BME280_temperature;BME280_humidity;BME280_pressure;Samples;Min_cycle;Max_cycle;Signal;HPM_P1;HPM_P2
2021/04/20 00:01:50;;;;;;;18.92;15.85;;;5.30;99.90;;;;;;4992933;28;20199;-86
2021/04/20 00:04:17;;;;;;;17.17;14.18;;;5.30;99.90;;;;;;4993537;28;20190;-86
2021/04/20 00:06:43;;;;;;;17.15;14.00;;;5.20;99.90;;;;;;4997947;28;20538;-86
2021/04/20 00:09:10;;;;;;;17.67;15.77;;;5.20;99.90;;;;;;5010628;28;20196;-87
2021/04/20 00:11:37;;;;;;;17.40;14.30;;;5.20;99.90;;;;;;4998547;28;20244;-86
2021/04/20 00:14:05;;;;;;;18.33;15.48;;;5.10;99.90;;;;;;5027046;28;20696;-86
2021/04/20 00:16:32;;;;;;;19.55;15.88;;;5.10;99.90;;;;;;5029724;28;20220;-87
2021/04/20 00:18:58;;;;;;;19.90;16.85;;;5.00;99.90;;;;;;5030792;28;20191;-87
2021/04/20 00:21:27;;;;;;;22.77;17.33;;;5.00;99.90;;;;;;5025658;28;20220;-87
2021/04/20 00:23:53;;;;;;;18.38;15.02;;;5.00;99.90;;;;;;5018621;28;20298;-86
2021/04/20 00:26:19;;;;;;;20.27;17.02;;;5.00;99.90;;;;;;5019672;28;20231;-86
2021/04/20 00:28:46;;;;;;;19.75;17.08;;;5.00;99.90;;;;;;5022241;28;20180;-86
2021/04/20 00:31:13;;;;;;;21.73;15.70;;;4.90;99.90;;;;;;5020472;27;20315;-87
2021/04/20 00:33:40;;;;;;;22.48;17.55;;;4.90;99.90;;;;;;5055847;27;20208;-87
2021/04/20 00:36:07;;;;;;;20.45;16.55;;;4.90;99.90;;;;;;5054881;27;20222;-86
2021/04/20 00:38:34;;;;;;;22.20;16.73;;;5.00;99.90;;;;;;5053392;27;20243;-87
2021/04/20 00:41:04;;;;;;;19.50;16.23;;;5.00;99.90;;;;;;5010980;28;20194;-87
2021/04/20 00:43:35;;;;;;;18.85;14.77;;;4.90;99.90;;;;;;5045162;28;20210;-86
2021/04/20 00:46:02;;;;;;;17.05;14.75;;;4.90;99.90;;;;;;5011631;28;20194;-85
2021/04/20 00:48:29;;;;;;;17.88;14.50;;;4.90;99.90;;;;;;5049765;28;20252;-85
2021/04/20 00:50:56;;;;;;;18.65;15.68;;;4.90;99.90;;;;;;5031704;28;20645;-87
2021/04/20 00:53:24;;;;;;;21.05;15.90;;;4.90;99.90;;;;;;5033495;28;20200;-86
2021/04/20 00:55:51;;;;;;;17.85;15.05;;;4.90;99.90;;;;;;5023478;28;20216;-87
2021/04/20 00:58:17;;;;;;;19.48;12.88;;;4.90;99.90;;;;;;5031306;28;20200;-87
2021/04/20 01:00:43;;;;;;;18.00;13.32;;;4.80;99.90;;;;;;5014392;28;20217;-88
2021/04/20 01:03:10;;;;;;;16.52;13.52;;;4.80;99.90;;;;;;5011624;28;20206;-86
2021/04/20 01:05:38;;;;;;;14.70;12.70;;;4.80;99.90;;;;;;5012796;28;20245;-86
2021/04/20 01:08:06;;;;;;;18.75;13.85;;;4.70;99.90;;;;;;5031060;28;20193;-85
2021/04/20 01:10:34;;;;;;;17.02;14.95;;;4.70;99.90;;;;;;5016676;28;20531;-86
2021/04/20 01:13:02;;;;;;;15.85;12.98;;;4.60;99.90;;;;;;5030573;28;20185;-88
2021/04/20 01:15:28;;;;;;;15.77;13.00;;;4.60;99.90;;;;;;5012219;28;20197;-86
2021/04/20 01:17:55;;;;;;;14.77;12.73;;;4.50;99.90;;;;;;5008728;28;20197;-86
2021/04/20 01:20:22;;;;;;;18.35;14.35;;;4.50;99.90;;;;;;4995664;28;20249;-85
2021/04/20 01:22:51;;;;;;;16.10;13.40;;;4.50;99.90;;;;;;4996434;28;20189;-86
2021/04/20 01:25:19;;;;;;;17.30;13.05;;;4.40;99.90;;;;;;4997022;28;20188;-86
2021/04/20 01:27:45;;;;;;;15.23;13.60;;;4.40;99.90;;;;;;5015617;28;20208;-87
2021/04/20 01:30:13;;;;;;;16.65;13.93;;;4.40;99.90;;;;;;5011960;28;20194;-86
2021/04/20 01:32:40;;;;;;;14.60;12.38;;;4.30;99.90;;;;;;4998195;28;20599;-85
2021/04/20 01:35:09;;;;;;;16.98;13.20;;;4.30;99.90;;;;;;5023799;28;20696;-86
2021/04/20 01:37:36;;;;;;;18.77;15.88;;;4.20;99.90;;;;;;5022338;28;20238;-85
2021/04/20 01:40:04;;;;;;;15.98;13.30;;;4.20;99.90;;;;;;5014679;28;20195;-86
2021/04/20 01:42:33;;;;;;;17.05;14.25;;;4.20;99.90;;;;;;5013420;28;20196;-86
2021/04/20 01:44:59;;;;;;;14.98;13.30;;;4.20;99.90;;;;;;5014618;28;20231;-86
2021/04/20 01:47:26;;;;;;;16.40;14.45;;;4.20;99.90;;;;;;5004775;28;20247;-85
2021/04/20 01:49:54;;;;;;;19.77;16.35;;;4.10;99.90;;;;;;4994132;28;20236;-85
2021/04/20 01:52:21;;;;;;;24.10;17.70;;;4.10;99.90;;;;;;5013731;28;20193;-86
2021/04/20 01:54:47;;;;;;;22.30;16.48;;;4.10;99.90;;;;;;5013875;28;20283;-86
2021/04/20 01:57:16;;;;;;;20.52;15.38;;;4.00;99.90;;;;;;5013242;28;20213;-86
2021/04/20 01:59:46;;;;;;;21.50;14.95;;;4.00;99.90;;;;;;5013446;28;20262;-87
2021/04/20 02:02:13;;;;;;;19.02;14.95;;;4.00;99.90;;;;;;5013259;28;20188;-86
2021/04/20 02:04:39;;;;;;;17.63;15.73;;;4.00;99.90;;;;;;5014190;28;20223;-86
2021/04/20 02:07:06;;;;;;;16.50;14.40;;;4.00;99.90;;;;;;5017183;28;20189;-87
2021/04/20 02:09:33;;;;;;;15.60;13.48;;;4.00;99.90;;;;;;5020377;28;20192;-87
2021/04/20 02:14:43;;;;;;;17.90;14.50;;;4.00;99.90;;;;;;5030121;28;20189;-87
2021/04/20 02:17:11;;;;;;;18.15;15.05;;;4.00;99.90;;;;;;5025734;28;20273;-87
2021/04/20 02:19:39;;;;;;;19.83;15.73;;;4.00;99.90;;;;;;5009030;28;20197;-87
2021/04/20 02:22:06;;;;;;;21.88;17.05;;;3.90;99.90;;;;;;5007480;28;20193;-87
2021/04/20 02:24:34;;;;;;;19.20;17.08;;;3.90;99.90;;;;;;5040730;28;20246;-86
2021/04/20 02:27:00;;;;;;;17.33;15.00;;;3.90;99.90;;;;;;5016118;28;20219;-86
2021/04/20 02:29:27;;;;;;;16.90;13.25;;;3.90;99.90;;;;;;5013627;28;20272;-85
2021/04/20 02:31:53;;;;;;;21.05;15.23;;;3.80;99.90;;;;;;5013807;28;20234;-87
2021/04/20 02:34:21;;;;;;;23.10;16.45;;;3.80;99.90;;;;;;5013192;28;20192;-87
2021/04/20 02:36:49;;;;;;;19.75;15.43;;;3.90;99.90;;;;;;5013052;28;20242;-87
2021/04/20 02:39:16;;;;;;;19.80;15.63;;;3.80;99.90;;;;;;4994572;28;20190;-86
2021/04/20 02:41:45;;;;;;;21.70;15.85;;;3.80;99.90;;;;;;4993621;28;20195;-86
2021/04/20 02:44:12;;;;;;;19.10;15.20;;;3.80;99.90;;;;;;4994928;28;20221;-86
2021/04/20 02:46:38;;;;;;;23.27;16.73;;;3.80;99.90;;;;;;4993017;28;20689;-86
2021/04/20 02:49:05;;;;;;;20.25;15.02;;;3.80;99.90;;;;;;4994693;28;20529;-87
2021/04/20 02:51:35;;;;;;;20.67;16.30;;;3.80;99.90;;;;;;4993604;28;20203;-87
2021/04/20 02:54:02;;;;;;;20.65;16.65;;;3.80;99.90;;;;;;5007788;28;20188;-88
2021/04/20 02:56:30;;;;;;;20.10;15.80;;;3.80;99.90;;;;;;5012864;28;20219;-87
2021/04/20 02:58:59;;;;;;;19.67;16.05;;;3.80;99.90;;;;;;4999672;28;20217;-87
2021/04/20 03:01:28;;;;;;;19.77;15.38;;;3.80;99.90;;;;;;4991962;28;20194;-87
2021/04/20 03:03:55;;;;;;;24.23;18.48;;;3.80;99.90;;;;;;4995618;28;20247;-87
2021/04/20 03:06:22;;;;;;;21.50;16.92;;;3.80;99.90;;;;;;4993272;28;20552;-86
2021/04/20 03:08:50;;;;;;;21.90;17.35;;;3.80;99.90;;;;;;5011458;28;20200;-86
2021/04/20 03:11:24;;;;;;;20.88;14.77;;;3.90;99.90;;;;;;5012482;28;20196;-87
2021/04/20 03:13:51;;;;;;;22.02;17.25;;;3.90;99.90;;;;;;5001973;28;20278;-86
2021/04/20 03:16:17;;;;;;;26.88;18.10;;;4.00;99.90;;;;;;4993028;28;20206;-87
2021/04/20 03:18:48;;;;;;;23.80;17.67;;;4.00;99.90;;;;;;5004362;28;20186;-88
2021/04/20 03:21:16;;;;;;;21.67;17.55;;;4.00;99.90;;;;;;5012689;28;20193;-87
2021/04/20 03:23:43;;;;;;;22.17;16.27;;;4.00;99.90;;;;;;5012394;28;20188;-87
2021/04/20 03:26:31;;;;;;;23.73;18.52;;;4.00;99.90;;;;;;5012608;28;20186;-87
2021/04/20 03:28:59;;;;;;;23.60;19.50;;;4.10;99.90;;;;;;5012475;28;20189;-87
2021/04/20 03:31:27;;;;;;;24.33;18.95;;;4.10;99.90;;;;;;5013931;28;20193;-87
2021/04/20 03:33:59;;;;;;;21.88;17.67;;;4.10;99.90;;;;;;5012306;28;20652;-88
2021/04/20 03:36:30;;;;;;;21.05;16.08;;;4.00;99.90;;;;;;5011779;28;20233;-87
2021/04/20 03:39:01;;;;;;;24.85;19.70;;;4.00;99.90;;;;;;5019103;28;20229;-86
2021/04/20 03:41:33;;;;;;;21.45;14.95;;;4.00;99.90;;;;;;5018515;28;20647;-86
2021/04/20 03:44:02;;;;;;;20.90;16.25;;;4.00;99.90;;;;;;5021956;28;20188;-88
2021/04/20 03:46:34;;;;;;;20.75;15.82;;;3.90;99.90;;;;;;5012529;28;20182;-87
2021/04/20 03:49:06;;;;;;;17.13;14.32;;;3.90;99.90;;;;;;5023455;28;20237;-87
2021/04/20 03:51:33;;;;;;;21.77;16.77;;;3.80;99.90;;;;;;5017716;28;20195;-87
2021/04/20 03:54:07;;;;;;;22.02;16.13;;;3.80;99.90;;;;;;5031944;28;20241;-86
2021/04/20 03:56:36;;;;;;;22.20;18.10;;;3.80;99.90;;;;;;5025352;28;20267;-87
2021/04/20 03:59:04;;;;;;;22.65;18.55;;;3.80;99.90;;;;;;5010741;28;20186;-87
2021/04/20 04:01:33;;;;;;;21.70;18.63;;;3.80;99.90;;;;;;5021692;28;20195;-87
2021/04/20 04:04:00;;;;;;;22.13;19.08;;;3.70;99.90;;;;;;5039015;28;20173;-86
2021/04/20 04:06:28;;;;;;;24.65;18.42;;;3.70;99.90;;;;;;5024044;28;20532;-87
2021/04/20 04:08:55;;;;;;;22.08;18.30;;;3.70;99.90;;;;;;5021315;28;20656;-86
2021/04/20 04:11:23;;;;;;;21.92;17.33;;;3.60;99.90;;;;;;4998510;28;20188;-86
2021/04/20 04:13:50;;;;;;;26.15;21.00;;;3.70;99.90;;;;;;5023549;28;20188;-87
2021/04/20 04:16:22;;;;;;;24.45;18.92;;;3.70;99.90;;;;;;4997605;28;20212;-87
2021/04/20 04:18:53;;;;;;;19.55;17.45;;;3.60;99.90;;;;;;5017464;28;20582;-87
2021/04/20 04:21:25;;;;;;;24.67;19.75;;;3.60;99.90;;;;;;5013982;28;20205;-87
2021/04/20 04:23:57;;;;;;;24.85;19.42;;;3.60;99.90;;;;;;5018973;28;20217;-87
2021/04/20 04:26:28;;;;;;;23.95;19.27;;;3.60;99.90;;;;;;5014806;28;20194;-86
2021/04/20 04:28:58;;;;;;;27.30;20.60;;;3.60;99.90;;;;;;5063117;28;20301;-87
2021/04/20 04:31:27;;;;;;;25.75;19.70;;;3.60;99.90;;;;;;5031049;28;20200;-88
2021/04/20 04:33:54;;;;;;;28.58;24.95;;;3.70;99.90;;;;;;5031379;28;20197;-88
2021/04/20 04:36:21;;;;;;;25.52;20.15;;;3.70;99.90;;;;;;5032321;28;20231;-87
2021/04/20 04:38:48;;;;;;;24.50;19.08;;;3.80;99.90;;;;;;5024150;28;20196;-87
2021/04/20 04:41:15;;;;;;;28.13;18.23;;;3.80;99.90;;;;;;5020139;28;20225;-88
2021/04/20 04:43:42;;;;;;;27.65;20.40;;;3.80;99.90;;;;;;5006421;28;20246;-87
2021/04/20 04:46:11;;;;;;;24.98;19.27;;;3.80;99.90;;;;;;5029731;28;20200;-88
2021/04/20 04:48:38;;;;;;;23.92;19.15;;;3.80;99.90;;;;;;5028840;28;20195;-87
2021/04/20 04:51:05;;;;;;;29.17;19.65;;;3.80;99.90;;;;;;5019442;28;20200;-87
2021/04/20 04:53:33;;;;;;;26.88;20.40;;;3.80;99.90;;;;;;5026481;28;20219;-87
2021/04/20 04:56:01;;;;;;;29.60;21.45;;;3.80;99.90;;;;;;5011881;28;20211;-87
2021/04/20 04:58:30;;;;;;;27.40;21.85;;;3.90;99.90;;;;;;5011138;28;20194;-85
2021/04/20 05:00:58;;;;;;;32.67;21.55;;;3.90;99.90;;;;;;5012017;28;20224;-85
2021/04/20 05:03:25;;;;;;;29.20;22.10;;;4.00;99.90;;;;;;5026145;28;20654;-86
2021/04/20 05:05:54;;;;;;;27.25;20.95;;;4.00;99.90;;;;;;5034996;28;20192;-85
2021/04/20 05:08:20;;;;;;;26.40;20.42;;;4.10;99.90;;;;;;5018345;28;20197;-86
2021/04/20 05:10:46;;;;;;;28.00;21.67;;;4.10;99.90;;;;;;5007517;28;20680;-85
2021/04/20 05:13:14;;;;;;;24.45;20.85;;;4.20;99.90;;;;;;5010528;28;20643;-86
2021/04/20 05:15:41;;;;;;;26.15;20.67;;;4.20;99.90;;;;;;5015972;28;20189;-85
2021/04/20 05:18:10;;;;;;;28.15;21.98;;;4.20;99.90;;;;;;5027571;28;20223;-85
2021/04/20 05:20:40;;;;;;;26.90;21.35;;;4.20;99.90;;;;;;4995057;28;20237;-84
2021/04/20 05:23:07;;;;;;;28.67;20.52;;;4.30;99.90;;;;;;5021136;28;20578;-88
2021/04/20 05:25:33;;;;;;;28.65;22.02;;;4.40;99.90;;;;;;5033604;28;20194;-88
2021/04/20 05:28:00;;;;;;;28.45;23.33;;;4.40;99.90;;;;;;5024368;28;20197;-88
2021/04/20 05:30:27;;;;;;;30.73;23.83;;;4.50;99.90;;;;;;5017078;28;20602;-88
2021/04/20 05:32:53;;;;;;;30.67;23.67;;;4.60;99.90;;;;;;5030272;28;20185;-88
2021/04/20 05:35:21;;;;;;;32.30;24.15;;;4.70;99.90;;;;;;5009664;28;20216;-87
2021/04/20 05:37:51;;;;;;;27.35;22.90;;;4.90;99.90;;;;;;5062285;28;20206;-86
2021/04/20 05:40:21;;;;;;;29.08;20.92;;;5.00;99.90;;;;;;5032197;28;20189;-84
2021/04/20 05:42:50;;;;;;;26.08;19.15;;;5.10;99.90;;;;;;5030125;28;20250;-85
2021/04/20 05:45:16;;;;;;;28.38;18.73;;;5.20;99.90;;;;;;5028151;28;20220;-85
2021/04/20 05:47:45;;;;;;;26.60;21.42;;;5.30;99.90;;;;;;5020976;28;20189;-87
2021/04/20 05:50:17;;;;;;;29.00;20.58;;;5.40;99.90;;;;;;5026155;28;20312;-85
2021/04/20 05:52:43;;;;;;;22.48;19.42;;;5.50;99.90;;;;;;4999170;28;20204;-86
2021/04/20 05:55:12;;;;;;;26.42;19.55;;;5.60;99.90;;;;;;5019700;28;20188;-86
2021/04/20 05:57:40;;;;;;;29.33;22.35;;;5.70;99.90;;;;;;5023895;28;20217;-86
2021/04/20 06:00:08;;;;;;;25.95;18.60;;;5.90;99.90;;;;;;5016020;28;20189;-86
2021/04/20 06:02:36;;;;;;;28.30;20.45;;;6.00;99.90;;;;;;5012997;28;20638;-85
2021/04/20 06:05:07;;;;;;;28.08;20.83;;;6.20;99.90;;;;;;5014591;28;20307;-87
2021/04/20 06:07:35;;;;;;;27.20;20.63;;;6.30;99.90;;;;;;5023575;28;20188;-87
2021/04/20 06:10:05;;;;;;;28.60;21.60;;;6.40;99.90;;;;;;5025566;28;20190;-87
2021/04/20 06:12:32;;;;;;;30.52;20.30;;;6.50;99.90;;;;;;5005590;28;20193;-87
2021/04/20 06:14:59;;;;;;;25.08;18.30;;;6.70;99.90;;;;;;5010880;28;20609;-86
2021/04/20 06:17:28;;;;;;;29.83;22.10;;;6.80;99.90;;;;;;5018379;28;20216;-86
2021/04/20 06:19:54;;;;;;;29.17;20.35;;;7.00;99.90;;;;;;5011194;28;20617;-86
2021/04/20 06:22:21;;;;;;;22.88;19.40;;;7.00;99.90;;;;;;5000621;28;20182;-86
2021/04/20 06:24:47;;;;;;;25.20;20.30;;;7.10;99.90;;;;;;4999064;28;20178;-85
2021/04/20 06:27:15;;;;;;;26.95;19.65;;;7.20;99.90;;;;;;5002637;28;20201;-84
2021/04/20 06:29:42;;;;;;;28.67;17.98;;;7.40;99.90;;;;;;4992094;28;20236;-86
2021/04/20 06:32:10;;;;;;;27.65;19.85;;;7.40;99.90;;;;;;5007645;28;20223;-86
2021/04/20 06:34:39;;;;;;;31.50;21.73;;;7.60;99.90;;;;;;5031342;28;20222;-85
2021/04/20 06:37:08;;;;;;;29.02;20.27;;;7.70;99.90;;;;;;5020263;28;20252;-86
2021/04/20 06:39:36;;;;;;;24.40;18.50;;;7.90;99.90;;;;;;5004277;28;20595;-85
2021/04/20 06:42:06;;;;;;;23.25;16.65;;;8.00;99.90;;;;;;5014787;28;20641;-88
2021/04/20 06:44:39;;;;;;;22.65;16.67;;;8.20;99.90;;;;;;5003750;28;20221;-86
2021/04/20 06:47:15;;;;;;;20.95;17.27;;;8.40;99.90;;;;;;5018404;28;20189;-86
2021/04/20 06:49:45;;;;;;;23.50;17.08;;;8.60;99.90;;;;;;5029094;28;20639;-87
2021/04/20 06:52:17;;;;;;;18.05;15.27;;;8.70;99.90;;;;;;5015062;28;20254;-87
2021/04/20 06:54:51;;;;;;;19.27;15.98;;;8.90;99.90;;;;;;5022626;28;20351;-86
2021/04/20 06:57:28;;;;;;;19.67;15.85;;;9.00;99.90;;;;;;5021926;28;20201;-83
2021/04/20 07:00:03;;;;;;;22.15;17.20;;;9.20;99.90;;;;;;5020073;28;20292;-82
2021/04/20 07:02:39;;;;;;;20.17;14.77;;;9.30;99.90;;;;;;5037752;28;20189;-83
2021/04/20 07:05:09;;;;;;;16.55;14.52;;;9.50;99.90;;;;;;5043050;28;20185;-84
2021/04/20 07:07:50;;;;;;;22.33;16.15;;;9.70;99.90;;;;;;5040115;28;20226;-84
2021/04/20 07:10:21;;;;;;;19.65;15.18;;;9.80;99.90;;;;;;5024368;28;20185;-83
2021/04/20 07:12:49;;;;;;;14.90;12.82;;;9.90;99.90;;;;;;5027522;28;20189;-87
2021/04/20 07:15:20;;;;;;;17.48;13.45;;;10.10;99.90;;;;;;5031667;28;20203;-85
2021/04/20 07:18:31;;;;;;;17.15;13.02;;;10.20;99.90;;;;;;5030762;28;20209;-85
2021/04/20 07:21:07;;;;;;;18.38;14.95;;;10.20;99.90;;;;;;5013022;28;20682;-84
2021/04/20 07:24:12;;;;;;;15.48;13.40;;;10.40;99.90;;;;;;5003909;28;20545;-82
2021/04/20 07:26:56;;;;;;;15.23;12.60;;;10.60;99.90;;;;;;5016611;28;20189;-84
2021/04/20 07:29:35;;;;;;;14.65;12.25;;;10.70;99.90;;;;;;5033945;28;20193;-85
2021/04/20 07:32:11;;;;;;;15.93;12.43;;;10.80;99.90;;;;;;5012145;28;20189;-83
2021/04/20 07:34:44;;;;;;;18.80;13.77;;;10.90;99.90;;;;;;5012060;28;20206;-83
2021/04/20 07:37:23;;;;;;;14.15;11.45;;;11.10;99.90;;;;;;4999610;28;20261;-85
2021/04/20 07:40:08;;;;;;;15.45;13.32;;;11.20;99.90;;;;;;4994424;28;20190;-84
2021/04/20 07:42:58;;;;;;;16.60;12.95;;;11.30;99.90;;;;;;4993666;28;20197;-83
2021/04/20 07:45:35;;;;;;;15.07;12.55;;;11.40;99.90;;;;;;5028535;28;20189;-83
2021/04/20 07:48:09;;;;;;;15.60;13.23;;;11.50;99.90;;;;;;5032008;28;20226;-85
2021/04/20 07:50:45;;;;;;;18.35;13.35;;;11.60;99.90;;;;;;5013158;28;20189;-84
2021/04/20 07:53:19;;;;;;;16.85;13.60;;;11.70;99.90;;;;;;5013305;28;20227;-85
2021/04/20 07:55:52;;;;;;;18.02;15.43;;;11.80;99.90;;;;;;4993791;28;20194;-86
2021/04/20 07:58:21;;;;;;;16.02;12.82;;;11.90;99.90;;;;;;5007863;28;20274;-86
2021/04/20 08:00:54;;;;;;;15.38;13.43;;;12.00;99.90;;;;;;5097275;28;20181;-85
2021/04/20 08:03:26;;;;;;;16.10;13.48;;;12.10;99.90;;;;;;5035443;28;20191;-86
2021/04/20 08:05:59;;;;;;;16.58;13.80;;;12.30;99.90;;;;;;5013970;28;20280;-87
2021/04/20 08:08:31;;;;;;;18.83;15.00;;;12.40;99.90;;;;;;5025989;28;20181;-86
2021/04/20 08:11:01;;;;;;;17.13;15.30;;;12.50;99.90;;;;;;5017044;28;20198;-86
2021/04/20 08:13:32;;;;;;;20.50;13.15;;;12.70;99.90;;;;;;5014823;28;20238;-85
2021/04/20 08:16:02;;;;;;;18.85;14.98;;;12.70;99.90;;;;;;5014334;28;20194;-85
2021/04/20 08:18:32;;;;;;;17.15;14.57;;;12.70;99.90;;;;;;5013755;28;20176;-86
2021/04/20 08:21:02;;;;;;;22.45;15.43;;;12.80;99.90;;;;;;5019164;28;20217;-86
2021/04/20 08:23:31;;;;;;;17.98;15.52;;;12.90;99.90;;;;;;5017825;28;20193;-86
2021/04/20 08:26:05;;;;;;;17.90;15.20;;;12.90;99.90;;;;;;5027643;28;20280;-86
2021/04/20 08:28:47;;;;;;;20.23;14.93;;;13.00;99.90;;;;;;5022505;28;20291;-85
2021/04/20 08:31:20;;;;;;;16.40;14.30;;;13.00;99.90;;;;;;5002536;28;20197;-85
2021/04/20 08:33:53;;;;;;;17.27;14.23;;;13.00;99.90;;;;;;5000054;28;20240;-85
2021/04/20 08:36:32;;;;;;;22.38;16.35;;;13.10;99.90;;;;;;5002302;28;20689;-86
2021/04/20 08:39:07;;;;;;;21.23;15.40;;;13.20;99.90;;;;;;5004682;28;20194;-86
2021/04/20 08:41:38;;;;;;;20.20;16.55;;;13.30;99.90;;;;;;5004089;28;20190;-87
2021/04/20 08:44:18;;;;;;;16.63;14.05;;;13.30;99.90;;;;;;5013600;28;20282;-87
2021/04/20 08:46:55;;;;;;;18.65;16.27;;;13.50;99.90;;;;;;4994977;28;20198;-86
2021/04/20 08:49:38;;;;;;;20.33;15.60;;;13.60;99.90;;;;;;5012247;28;20201;-85
2021/04/20 08:52:15;;;;;;;28.50;14.57;;;13.60;99.90;;;;;;5033901;28;20185;-87
2021/04/20 08:54:52;;;;;;;18.30;13.65;;;13.70;99.90;;;;;;5012325;28;20193;-86
2021/04/20 08:57:26;;;;;;;18.95;14.57;;;13.90;99.90;;;;;;4996258;28;20309;-86
2021/04/20 09:00:04;;;;;;;14.95;13.32;;;14.00;99.90;;;;;;5007047;28;20185;-86
2021/04/20 09:02:41;;;;;;;19.00;13.82;;;14.10;99.90;;;;;;5005166;28;20339;-85
2021/04/20 09:05:16;;;;;;;17.02;13.40;;;14.20;99.90;;;;;;5018798;28;20525;-87
2021/04/20 09:07:54;;;;;;;18.92;15.73;;;14.40;99.90;;;;;;5006101;28;20566;-86
2021/04/20 09:10:26;;;;;;;17.50;14.20;;;14.60;99.90;;;;;;5001848;28;20278;-85
2021/04/20 09:13:00;;;;;;;16.73;14.23;;;14.70;99.90;;;;;;4996943;28;20192;-84
2021/04/20 09:15:29;;;;;;;19.00;15.60;;;14.70;99.90;;;;;;4993580;28;20665;-83
2021/04/20 09:18:03;;;;;;;18.20;14.90;;;14.70;99.90;;;;;;5015283;28;20216;-86
2021/04/20 09:20:38;;;;;;;14.98;13.43;;;14.80;99.90;;;;;;5001930;28;20237;-85
2021/04/20 09:23:15;;;;;;;16.35;14.35;;;14.90;99.90;;;;;;5006600;28;20204;-86
2021/04/20 09:25:49;;;;;;;15.02;13.43;;;14.80;99.90;;;;;;5013577;28;20218;-86
2021/04/20 09:28:20;;;;;;;17.70;14.45;;;14.80;99.90;;;;;;5012221;28;20184;-85
2021/04/20 09:30:50;;;;;;;19.02;15.30;;;15.00;99.90;;;;;;5022673;28;20200;-87
2021/04/20 09:33:20;;;;;;;19.10;14.73;;;15.10;99.90;;;;;;5011663;28;20182;-86
2021/04/20 09:35:48;;;;;;;15.82;14.02;;;15.20;99.90;;;;;;5012874;28;20189;-86
2021/04/20 09:38:18;;;;;;;21.80;14.43;;;15.30;99.90;;;;;;5017433;28;20224;-85
2021/04/20 09:40:47;;;;;;;20.27;13.32;;;15.20;99.90;;;;;;4997710;28;20718;-83
2021/04/20 09:43:28;;;;;;;19.00;15.05;;;15.20;99.90;;;;;;5004638;28;20185;-83
2021/04/20 09:46:00;;;;;;;15.18;13.68;;;15.20;99.90;;;;;;5011229;28;20226;-85
2021/04/20 09:48:32;;;;;;;17.02;14.52;;;15.20;99.90;;;;;;5012236;28;20279;-85
2021/04/20 09:51:03;;;;;;;16.85;13.95;;;15.20;99.90;;;;;;4991703;28;20227;-85
2021/04/20 09:53:38;;;;;;;16.38;14.43;;;15.40;99.90;;;;;;5004155;28;20189;-84
2021/04/20 09:56:19;;;;;;;17.85;14.52;;;15.40;99.90;;;;;;5013305;28;20207;-82
2021/04/20 09:58:48;;;;;;;17.15;13.90;;;15.30;99.90;;;;;;5006826;28;20197;-84
2021/04/20 10:01:22;;;;;;;23.58;14.93;;;15.10;99.90;;;;;;5023862;28;20262;-84
2021/04/20 10:03:58;;;;;;;35.33;17.67;;;15.20;99.90;;;;;;5014702;28;20200;-84
2021/04/20 10:06:44;;;;;;;19.42;14.40;;;15.40;99.90;;;;;;5068570;28;20237;-85
2021/04/20 10:09:23;;;;;;;17.90;14.25;;;15.80;99.90;;;;;;5003069;28;20216;-85
2021/04/20 10:12:02;;;;;;;22.98;16.05;;;16.10;99.90;;;;;;4996596;28;20188;-84
2021/04/20 10:14:41;;;;;;;17.15;15.32;;;16.40;99.90;;;;;;4998468;28;20311;-85
2021/04/20 10:17:15;;;;;;;16.70;15.00;;;16.60;99.90;;;;;;5002271;28;20213;-84
2021/04/20 10:19:48;;;;;;;19.40;15.63;;;16.60;99.90;;;;;;4996100;28;20209;-86
2021/04/20 10:22:25;;;;;;;19.38;15.13;;;16.50;99.90;;;;;;5006331;28;20217;-86
2021/04/20 10:25:12;;;;;;;16.00;13.73;;;16.60;99.90;;;;;;5016161;28;20621;-85
2021/04/20 10:27:39;;;;;;;22.67;17.10;;;16.80;99.90;;;;;;5014428;28;20254;-87
2021/04/20 10:30:11;;;;;;;19.27;17.25;;;16.80;99.90;;;;;;5018213;28;20197;-85
2021/04/20 10:32:41;;;;;;;20.75;16.27;;;16.90;99.90;;;;;;5009055;28;20226;-85
2021/04/20 10:35:13;;;;;;;17.48;15.68;;;17.00;99.90;;;;;;5007836;28;20549;-85
2021/04/20 10:37:41;;;;;;;20.42;18.02;;;17.10;99.90;;;;;;5001193;28;20230;-83
2021/04/20 10:40:12;;;;;;;17.90;16.02;;;17.30;99.90;;;;;;5006066;28;20189;-88
2021/04/20 10:42:40;;;;;;;19.98;17.23;;;17.20;99.90;;;;;;5014115;28;20255;-84
2021/04/20 10:45:08;;;;;;;23.38;16.70;;;17.40;99.90;;;;;;5004815;28;20190;-85
2021/04/20 10:47:36;;;;;;;19.05;16.40;;;17.40;99.90;;;;;;5010453;28;20554;-86
2021/04/20 10:50:05;;;;;;;17.35;15.55;;;17.50;99.90;;;;;;5013990;28;20185;-86
2021/04/20 10:52:35;;;;;;;20.52;16.15;;;17.50;99.90;;;;;;5011816;28;20194;-86
2021/04/20 10:55:05;;;;;;;20.35;14.93;;;17.40;99.90;;;;;;4994998;28;20232;-84
2021/04/20 10:57:33;;;;;;;17.85;15.25;;;17.20;99.90;;;;;;4996743;28;20549;-85
2021/04/20 11:00:02;;;;;;;17.02;15.32;;;17.30;99.90;;;;;;5003389;28;20248;-86
2021/04/20 11:02:34;;;;;;;17.38;13.27;;;17.50;99.90;;;;;;5010383;28;20198;-85
2021/04/20 11:05:02;;;;;;;16.73;14.65;;;17.50;99.90;;;;;;5031568;28;20190;-85
2021/04/20 11:07:33;;;;;;;17.73;14.07;;;17.60;99.90;;;;;;5014623;28;20202;-84
2021/04/20 11:10:02;;;;;;;15.98;13.10;;;17.80;99.90;;;;;;5023147;28;20181;-85
2021/04/20 11:12:29;;;;;;;19.05;14.18;;;17.90;99.90;;;;;;5021168;28;20193;-85
2021/04/20 11:14:57;;;;;;;15.70;14.00;;;18.20;99.90;;;;;;5016399;28;21790;-84
2021/04/20 11:17:27;;;;;;;15.57;13.70;;;18.40;99.90;;;;;;5011878;28;20253;-84
2021/04/20 11:20:07;;;;;;;15.10;13.48;;;18.60;99.90;;;;;;5006162;28;20194;-86
2021/04/20 11:22:38;;;;;;;15.50;13.45;;;18.80;99.90;;;;;;5003251;28;20193;-85
2021/04/20 11:25:11;;;;;;;16.42;13.80;;;19.00;99.90;;;;;;5003754;28;20186;-85
2021/04/20 11:27:40;;;;;;;14.70;12.98;;;19.40;99.90;;;;;;4993632;28;20190;-85
2021/04/20 11:30:12;;;;;;;17.38;14.70;;;19.80;99.90;;;;;;4995467;28;20203;-84
2021/04/20 11:32:47;;;;;;;14.98;12.70;;;19.90;99.90;;;;;;5011242;28;20185;-84
2021/04/20 11:35:17;;;;;;;15.82;14.23;;;20.20;99.90;;;;;;5000650;28;20269;-86
2021/04/20 11:37:46;;;;;;;16.48;13.48;;;20.70;99.90;;;;;;4995992;28;20221;-82
2021/04/20 11:40:17;;;;;;;15.50;13.88;;;21.30;99.90;;;;;;5003383;28;20193;-84
2021/04/20 11:42:47;;;;;;;16.70;14.32;;;21.90;99.90;;;;;;5005307;28;20185;-86
2021/04/20 11:45:17;;;;;;;14.85;13.18;;;21.80;99.90;;;;;;5008043;28;20586;-85
2021/04/20 11:47:58;;;;;;;15.35;13.85;;;20.80;99.90;;;;;;4994881;28;20261;-86
2021/04/20 11:50:27;;;;;;;16.55;13.98;;;20.70;99.90;;;;;;4955037;28;20219;-84
2021/04/20 11:52:59;;;;;;;21.65;16.55;;;20.60;99.90;;;;;;4971823;28;20270;-85
2021/04/20 11:55:31;;;;;;;15.05;13.00;;;20.50;99.90;;;;;;4974377;28;20219;-85
2021/04/20 11:58:02;;;;;;;15.45;12.77;;;20.40;99.90;;;;;;5000178;28;20218;-85
2021/04/20 12:00:31;;;;;;;66.25;24.23;;;20.30;99.90;;;;;;4969074;28;20183;-85
2021/04/20 12:03:07;;;;;;;37.17;18.60;;;20.20;99.90;;;;;;4962481;28;20279;-84
2021/04/20 12:05:34;;;;;;;23.00;15.38;;;20.30;99.90;;;;;;4957453;28;20647;-85
2021/04/20 12:08:03;;;;;;;15.80;13.93;;;20.20;99.90;;;;;;4963465;28;20194;-85
2021/04/20 12:10:29;;;;;;;16.92;14.95;;;20.30;99.90;;;;;;4963617;28;20195;-86
2021/04/20 12:12:56;;;;;;;16.08;13.05;;;20.50;99.90;;;;;;4965940;28;20187;-85
2021/04/20 12:15:23;;;;;;;16.83;15.13;;;20.80;99.90;;;;;;4966796;28;20211;-85
2021/04/20 12:17:51;;;;;;;16.30;14.70;;;21.20;99.90;;;;;;4959343;28;20211;-85
2021/04/20 12:20:20;;;;;;;14.27;12.88;;;21.50;99.90;;;;;;4962280;28;20210;-86
2021/04/20 12:22:52;;;;;;;15.38;13.77;;;21.90;99.90;;;;;;4986951;28;20233;-86
2021/04/20 12:25:20;;;;;;;13.63;12.32;;;21.80;99.90;;;;;;4963125;28;20210;-85
2021/04/20 12:27:51;;;;;;;13.63;12.10;;;21.20;99.90;;;;;;4959318;28;20191;-85
2021/04/20 12:30:20;;;;;;;12.38;11.18;;;21.00;99.90;;;;;;4958173;28;20570;-85
2021/04/20 12:32:46;;;;;;;12.85;11.55;;;20.90;99.90;;;;;;4964906;28;20216;-85
2021/04/20 12:35:15;;;;;;;14.90;12.48;;;20.80;99.90;;;;;;4968793;28;20239;-86
2021/04/20 12:37:42;;;;;;;17.13;12.27;;;20.80;99.90;;;;;;4978567;28;20293;-83
2021/04/20 12:40:11;;;;;;;14.88;13.38;;;20.70;99.90;;;;;;4974261;28;20239;-85
2021/04/20 12:42:41;;;;;;;17.98;15.30;;;20.50;99.90;;;;;;4977149;28;20199;-84
2021/04/20 12:45:11;;;;;;;21.52;15.30;;;20.30;99.90;;;;;;4974832;28;20337;-87
2021/04/20 12:47:39;;;;;;;15.02;13.43;;;20.50;99.90;;;;;;4973082;28;20194;-86
2021/04/20 12:50:08;;;;;;;16.10;13.77;;;20.70;99.90;;;;;;4958413;28;20194;-87
2021/04/20 12:52:39;;;;;;;16.25;14.60;;;20.70;99.90;;;;;;4959853;28;20191;-87